Aérodrome :
LOGIN :

S'inscrire | Disclaimer

   EN    FR    IT 

 










Légende :    VFR   VFR Marginal   IFR   IFR Intensif   IFR Très Intensif
Visi : 
Plafond : 
>= 8 km
>= 3000ft
5 à 8 km
1000 à 3000 ft
1500m à 5 km
500 à 1000 ft
800 à 1500m
200 à 500 ft
< 800m
< 200 ft
Symboles :   Orages  Brouillard  Fortes neiges  Fortes précipitations  Vent > 20 kt
SIGMETs :   Divers  Orages  Givrage  Turbulence  Onde Orograph.  Cendres Volcan.







- Altitude de l'aérodrome : 47 ft
- Code IATA : CBG
- Voir les cartes d'approche


EGSC - Cambridge

DERNIER METAR :
  • 201350Z 21007KT 9999 FEW025 BKN035 18/11 Q1017

METARs EXPIRÉS :
  • 201320Z 20008KT 9999 FEW025 BKN040 18/11 Q1017
  • 201250Z 20010KT 170V240 9999 FEW028 BKN048 18/11 Q1017
  • 201220Z 21010KT 180V250 9999 BKN045 18/12 Q1017
  • 201150Z 21008KT 180V240 9999 BKN045 17/13 Q1018
  • 201120Z 22007KT 9999 BKN036 16/12 Q1018

TAF TAF EGSC
Valide du 20 à 12h jusqu'au 20 à 19h UTC


201101Z 2012/2019 22009KT 9999 SCT035
Pas de NOTAMs connus pour ce terrain.



MET'MAP, la Météo Aéronautique d'un coup d'oeil ! - Copyright ORBIFLY Décembre 2007 - Disclaimer

ORBIFLY MET'MAP TEAM :

Programmation & Développement : Alexandra Zaïnal
Conception & Développement : Baudouin d'Aumeries
Co-Programmation & Développement : Marc-Olivier Méhu
Soutien technique & logistique : Manuel Goepfert

Contact : metmap@orbifly.com




SOURCES & CREDITS :

   NOAA